Latest Weather Observations for Hamilton Island

IDQ60801

Issued at 5:32 pm EST Tuesday 17 October 2017 (issued every 30 minutes, with the page automatically refreshed every 10 minutes)

About weather observations | Map of weather stations | Latest weather observations for QLD | Other Formats
Station Details ID: 033106 Name: HAMILTON ISLAND AIRPORT Lat: -20.37 Lon: 148.95 Height: 58.66 m
Data from the previous 72 hours. | See also: Recent months at Hamilton Island
Date/Time
EST
Temp
°C
App
Temp
°C
Dew
Point
°C
Rel
Hum
%
Delta-T
°C
Wind Press
QNH
hPa
Press
MSL
hPa
Rain since
9am
mm
Dir  Spd
km/h
Gust
km/h
Spd
kts
Gust
kts
17/05:30pm 23.4 25.0 22.2 93 0.8 SE 17 20 9 11 1011.7 1011.4 1.6
17/05:24pm 23.4 25.0 22.2 93 0.8 SE 17 19 9 10 1011.7 1011.4 1.2
17/05:00pm 23.5 24.7 22.1 92 0.9 SE 19 22 10 12 1011.6 1011.3 1.0
17/04:30pm 23.8 24.6 21.7 88 1.4 ESE 20 24 11 13 1011.4 1011.1 0.2
17/04:00pm 24.3 24.9 21.0 82 2.2 ESE 19 20 10 11 1011.1 1010.8 0.2
17/03:30pm 24.6 24.9 20.7 79 2.6 SE 20 22 11 12 1010.7 1010.4 0.2
17/03:00pm 25.2 25.7 20.9 77 2.8 ESE 19 22 10 12 1010.8 1010.5 0.2
17/02:30pm 25.8 26.2 20.6 73 3.4 SE 19 22 10 12 1010.9 1010.6 0.2
17/02:00pm 26.1 26.9 20.7 72 3.6 ESE 17 20 9 11 1011.1 1010.8 0.2
17/01:30pm 25.9 26.2 20.5 72 3.5 ESE 19 22 10 12 1011.4 1011.1 0.2
17/01:00pm 26.7 27.7 21.0 71 3.8 ESE 17 20 9 11 1011.5 1011.2 0.2
17/12:30pm 26.4 26.8 20.7 71 3.8 ESE 19 22 10 12 1012.1 1011.8 0.2
17/12:00pm 25.6 26.4 20.6 74 3.3 ESE 17 20 9 11 1012.8 1012.5 0.2
17/11:30am 25.0 24.4 20.5 76 2.9 E 24 28 13 15 1013.0 1012.7 0.2
17/11:00am 24.8 23.8 20.5 77 2.8 E 26 32 14 17 1013.2 1012.9 0.2
17/10:30am 24.9 23.2 20.6 77 2.8 ESE 30 32 16 17 1013.8 1013.5 0.2
17/10:00am 25.3 23.5 20.3 74 3.3 ESE 30 33 16 18 1013.8 1013.5 0.2
17/09:30am 25.6 24.7 21.5 78 2.7 ESE 28 33 15 18 1014.1 1013.8 0.0
17/09:18am 25.0 24.0 21.3 80 2.4 ESE 28 32 15 17 1014.0 1013.7 0.0
17/09:00am 24.4 25.0 22.1 87 1.5 SSE 22 28 12 15 1013.6 1013.3 56.4
17/08:30am 24.2 23.3 22.1 88 1.4 SSE 30 35 16 19 1013.1 1012.8 56.4
17/08:00am 23.4 22.4 21.3 88 1.4 SE 28 32 15 17 1013.1 1012.8 56.4
17/07:31am 23.3 22.3 21.2 88 1.4 SSE 28 32 15 17 1012.7 1012.4 56.4
17/07:30am 23.3 22.3 21.2 88 1.4 SSE 28 32 15 17 1012.7 1012.4 56.4
17/07:27am 23.4 22.5 21.5 89 1.3 SE 28 33 15 18 1012.5 1012.2 56.4
17/07:00am 23.2 22.1 21.1 88 1.4 SSE 28 32 15 17 1012.0 1011.7 56.4
17/06:39am 23.3 22.3 21.2 88 1.4 SSE 28 32 15 17 1011.6 1011.3 56.4
17/06:32am 23.7 23.0 21.8 89 1.3 SSE 28 33 15 18 1011.6 1011.3 56.4
17/06:30am 23.5 22.5 21.2 87 1.5 SE 28 33 15 18 1011.4 1011.1 56.4
17/06:00am 23.2 21.9 21.3 89 1.3 SE 30 33 16 18 1011.0 1010.7 56.4
17/05:30am 23.0 22.3 20.3 85 1.8 SE 24 30 13 16 1010.5 1010.2 56.4
17/05:04am 22.9 23.7 20.6 87 1.5 ESE 17 20 9 11 1010.3 1010.0 56.4
17/05:00am 22.8 23.5 20.5 87 1.5 SE 17 20 9 11 1010.1 1009.8 56.4
17/04:32am 22.8 22.0 20.1 85 1.7 ESE 24 30 13 16 1009.5 1009.2 56.4
17/04:30am 22.8 21.6 20.1 85 1.7 ESE 26 30 14 16 1009.5 1009.2 56.4
17/04:00am 22.7 22.9 21.3 92 0.9 SE 22 26 12 14 1009.7 1009.4 56.4
17/03:30am 22.4 23.6 20.7 90 1.1 SE 15 19 8 10 1010.4 1010.1 56.4
17/03:00am 22.2 22.6 20.7 91 1.0 SSE 19 26 10 14 1010.5 1010.2 56.4
17/02:30am 22.1 22.6 20.9 93 0.8 SSE 19 24 10 13 1010.7 1010.4 56.4
17/02:00am 22.1 22.6 20.9 93 0.8 SE 19 22 10 12 1011.3 1011.0 56.4
17/01:30am 22.1 22.9 20.6 91 1.0 SSE 17 20 9 11 1011.6 1011.3 56.4
17/01:00am 22.2 23.5 20.8 92 0.9 SSE 15 19 8 10 1012.2 1011.9 56.4
17/12:30am 22.2 23.9 21.0 93 0.8 SSE 13 17 7 9 1012.7 1012.4 56.4
17/12:05am 22.0 23.5 20.6 92 0.9 SE 13 15 7 8 1013.0 1012.7 56.4
17/12:00am 22.0 23.9 20.6 92 0.9 SE 11 15 6 8 1013.0 1012.7 56.4
 
Date/Time
EST
Temp
°C
App
Temp
°C
Dew
Point
°C
Rel
Hum
%
Delta-T
°C
Wind Press
QNH
hPa
Press
MSL
hPa
Rain since
9am
mm
Dir  Spd
km/h
Gust
km/h
Spd
kts
Gust
kts
16/11:30pm 22.0 23.5 20.5 91 1.0 S 13 17 7 9 1013.0 1012.7 56.4
16/11:00pm 22.2 23.4 20.7 91 1.0 S 15 19 8 10 1013.3 1013.0 56.4
16/10:44pm 22.3 23.8 20.6 90 1.1 S 13 19 7 10 1013.4 1013.1 56.4
16/10:30pm 22.4 23.4 20.3 88 1.4 S 15 17 8 9 1013.5 1013.2 56.4
16/10:00pm 22.4 22.9 20.1 87 1.5 S 17 20 9 11 1013.7 1013.4 56.4
16/09:30pm 22.2 22.6 19.9 87 1.5 SSE 17 22 9 12 1013.3 1013.0 56.4
16/09:00pm 22.0 22.5 20.1 89 1.2 SSE 17 20 9 11 1013.4 1013.1 56.4
16/08:30pm 21.6 22.4 19.9 90 1.1 SE 15 19 8 10 1013.3 1013.0 56.4
16/08:00pm 21.5 22.8 19.4 88 1.3 E 11 17 6 9 1012.9 1012.6 56.4
16/07:30pm 21.7 22.0 19.6 88 1.3 ESE 17 20 9 11 1012.5 1012.2 56.2
16/07:00pm 21.4 21.0 19.0 86 1.5 ESE 19 24 10 13 1012.4 1012.1 56.2
16/06:30pm 21.5 21.1 19.4 88 1.3 ESE 20 24 11 13 1012.0 1011.7 56.2
16/06:00pm 21.5 20.7 20.1 92 0.9 E 24 28 13 15 1011.7 1011.4 56.2
16/05:30pm 21.6 20.4 20.8 95 0.5 ESE 28 35 15 19 1011.5 1011.2 56.0
16/05:00pm 20.9 18.7 19.6 92 0.8 ESE 30 35 16 19 1011.3 1011.0 55.2
16/04:49pm 21.4 19.3 20.6 95 0.5 ESE 32 37 17 20 1011.1 1010.8 54.6
16/04:32pm 21.0 18.7 20.2 95 0.5 ESE 32 35 17 19 1011.1 1010.8 53.6
16/04:30pm 21.0 18.7 20.2 95 0.5 ESE 32 35 17 19 1011.1 1010.8 53.6
16/04:00pm 21.2 19.0 20.7 97 0.3 E 33 39 18 21 1011.2 1010.9 50.2
16/03:48pm 21.6 20.3 21.4 99 0.1 SE 30 37 16 20 1011.1 1010.8 48.4
16/03:46pm 21.5 19.8 21.3 99 0.1 SE 32 37 17 20 1011.0 1010.7 48.2
16/03:30pm 21.2 20.1 21.0 99 0.1 ESE 28 35 15 19 1010.5 1010.2 45.8
16/03:00pm 21.0 18.8 20.7 98 0.2 E 33 43 18 23 1010.5 1010.2 30.6
16/02:40pm 21.7 17.7 20.9 95 0.5 ESE 43 50 23 27 1010.1 1009.8 10.8
16/02:30pm 22.6 20.7 21.4 93 0.8 ESE 33 41 18 22 1010.1 1009.8 9.0
16/02:00pm 23.0 21.5 20.9 88 1.4 SSE 30 35 16 19 1010.6 1010.3 9.0
16/01:30pm 22.7 21.6 21.0 90 1.1 SSE 28 33 15 18 1010.8 1010.5 9.0
16/01:00pm 22.6 21.8 20.9 90 1.1 SE 26 32 14 17 1011.1 1010.8 9.0
16/12:45pm 22.6 20.7 21.4 93 0.8 SE 33 37 18 20 1011.2 1010.9 9.0
16/12:30pm 22.5 20.0 21.7 95 0.5 SE 37 43 20 23 1011.1 1010.8 9.0
16/12:21pm 22.3 19.4 21.6 96 0.5 SE 39 43 21 23 1011.1 1010.8 9.0
16/12:10pm 21.6 19.1 20.9 96 0.5 SE 35 41 19 22 1011.3 1011.0 9.0
16/12:00pm 21.7 20.7 21.2 97 0.3 SSE 28 33 15 18 1011.7 1011.4 9.0
16/11:54am 21.6 20.9 21.1 97 0.3 SSE 26 33 14 18 1011.9 1011.6 9.0
16/11:30am 20.9 19.1 20.4 97 0.3 SSE 30 37 16 20 1012.3 1012.0 7.2
16/11:18am 21.1 19.3 20.4 96 0.5 SE 30 41 16 22 1012.4 1012.1 5.2
16/11:00am 22.0 21.9 21.5 97 0.3 SE 24 32 13 17 1012.5 1012.2 3.4
16/10:50am 21.3 20.5 20.1 93 0.8 ESE 24 33 13 18 1012.8 1012.5 2.2
16/10:48am 21.5 20.8 20.3 93 0.8 SE 24 33 13 18 1012.7 1012.4 1.8
16/10:30am 22.7 22.5 21.2 91 1.0 S 24 30 13 16 1012.8 1012.5 0.0
16/10:00am 22.7 22.7 21.7 94 0.7 S 24 30 13 16 1013.1 1012.8 0.0
16/09:30am 22.7 23.1 21.7 94 0.7 S 22 30 12 16 1013.1 1012.8 0.0
16/09:02am 22.9 23.7 21.7 93 0.8 SSE 20 24 11 13 1012.9 1012.6 0.0
16/09:00am 22.8 23.5 21.6 93 0.8 SE 20 24 11 13 1013.0 1012.7 8.8
16/08:40am 22.5 23.6 21.3 93 0.8 SE 17 20 9 11 1012.9 1012.6 8.8
16/08:30am 22.5 23.7 21.5 94 0.7 SE 17 20 9 11 1013.0 1012.7 8.8
16/08:00am 22.5 23.3 21.7 95 0.5 ESE 20 22 11 12 1013.0 1012.7 8.4
16/07:30am 21.3 19.6 19.8 91 1.0 E 28 35 15 19 1012.6 1012.3 8.0
16/07:00am 20.9 16.1 19.2 90 1.1 E 43 56 23 30 1011.9 1011.6 6.6
16/06:54am 21.0 19.5 19.5 91 1.0 ESE 26 56 14 30 1011.9 1011.6 6.4
16/06:30am 21.9 21.2 21.1 95 0.5 ESE 26 32 14 17 1012.2 1011.9 4.4
16/06:16am 22.1 19.6 20.9 93 0.8 SE 35 41 19 22 1012.2 1011.9 2.2
16/06:00am 23.4 23.0 20.9 86 1.6 ESE 24 35 13 19 1011.9 1011.6 0.0
16/05:30am 23.9 22.6 19.8 78 2.6 SE 26 30 14 16 1011.7 1011.4 0.0
16/05:00am 24.0 22.8 20.1 79 2.5 ESE 26 32 14 17 1011.4 1011.1 0.0
16/04:30am 23.9 22.2 19.8 78 2.6 ESE 28 35 15 19 1011.1 1010.8 0.0
16/04:00am 23.8 21.3 19.7 78 2.6 ESE 32 35 17 19 1010.6 1010.3 0.0
16/03:30am 23.7 21.1 19.6 78 2.6 SE 32 35 17 19 1010.2 1009.9 0.0
16/03:00am 23.8 21.7 19.7 78 2.6 ESE 30 35 16 19 1010.3 1010.0 0.0
16/02:30am 23.5 21.7 19.6 79 2.5 SE 28 35 15 19 1010.6 1010.3 0.0
16/02:00am 23.9 21.3 20.0 79 2.5 SE 33 39 18 21 1010.7 1010.4 0.0
16/01:30am 24.0 21.9 20.5 81 2.3 SE 32 35 17 19 1010.7 1010.4 0.0
16/01:00am 23.9 21.6 19.4 76 2.9 SE 30 35 16 19 1010.9 1010.6 0.0
16/12:30am 23.8 21.3 19.7 78 2.6 SE 32 39 17 21 1011.2 1010.9 0.0
16/12:00am 24.0 22.1 20.1 79 2.5 SE 30 33 16 18 1011.5 1011.2 0.0
 
Date/Time
EST
Temp
°C
App
Temp
°C
Dew
Point
°C
Rel
Hum
%
Delta-T
°C
Wind Press
QNH
hPa
Press
MSL
hPa
Rain since
9am
mm
Dir  Spd
km/h
Gust
km/h
Spd
kts
Gust
kts
15/11:30pm 24.0 22.8 20.1 79 2.5 SE 26 32 14 17 1011.6 1011.3 0.0
15/11:00pm 24.0 22.6 19.7 77 2.8 SE 26 32 14 17 1011.9 1011.6 0.0
15/10:30pm 24.1 22.7 20.4 80 2.4 SE 28 33 15 18 1011.9 1011.6 0.0
15/10:00pm 24.2 22.0 20.3 79 2.5 ESE 32 37 17 20 1012.0 1011.7 0.0
15/09:30pm 24.4 21.6 20.3 78 2.7 SE 35 43 19 23 1011.9 1011.6 0.0
15/09:00pm 24.2 21.4 20.3 79 2.5 SE 35 41 19 22 1011.6 1011.3 0.0
15/08:35pm 24.2 21.8 20.3 79 2.5 SE 33 39 18 21 1011.8 1011.5 0.0
15/08:30pm 24.2 22.0 20.3 79 2.5 SE 32 37 17 20 1011.8 1011.5 0.0
15/08:01pm 24.1 22.4 19.8 77 2.8 ESE 28 32 15 17 1011.3 1011.0 0.0
15/08:00pm 24.1 22.5 20.0 78 2.7 ESE 28 32 15 17 1011.3 1011.0 0.0
15/07:30pm 23.9 22.7 20.0 79 2.5 ESE 26 30 14 16 1011.0 1010.7 0.0
15/07:00pm 24.0 22.9 20.3 80 2.4 ESE 26 32 14 17 1011.1 1010.8 0.0
15/06:30pm 23.9 23.1 20.0 79 2.5 ESE 24 28 13 15 1010.9 1010.6 0.0
15/06:00pm 24.1 22.9 20.8 82 2.2 ESE 28 32 15 17 1010.3 1010.0 0.0
15/05:30pm 24.0 22.3 20.5 81 2.3 ESE 30 35 16 19 1009.7 1009.4 0.0
15/05:00pm 24.4 23.0 20.5 79 2.5 ESE 28 35 15 19 1009.8 1009.5 0.0
15/04:30pm 24.4 22.2 20.3 78 2.7 ESE 32 35 17 19 1009.0 1008.7 0.0
15/04:00pm 24.8 22.5 20.5 77 2.8 ESE 33 39 18 21 1009.0 1008.7 0.0
15/03:30pm 25.2 23.5 20.5 75 3.1 ESE 30 35 16 19 1009.2 1008.9 0.0
15/03:00pm 26.2 24.1 20.5 71 3.7 ESE 32 35 17 19 1009.0 1008.7 0.0
15/02:30pm 26.5 24.2 20.1 68 4.2 ESE 32 33 17 18 1009.4 1009.1 0.0
15/02:00pm 26.8 25.7 20.2 67 4.3 E 26 32 14 17 1010.0 1009.7 0.0
15/01:30pm 26.5 25.4 19.4 65 4.6 E 24 28 13 15 1010.4 1010.1 0.0
15/01:00pm 26.6 25.6 19.7 66 4.5 E 24 28 13 15 1010.7 1010.4 0.0
15/12:30pm 27.0 25.9 20.3 66 4.4 E 26 30 14 16 1010.8 1010.5 0.0
15/12:00pm 27.0 27.0 20.1 66 4.5 E 20 24 11 13 1011.4 1011.1 0.0
15/11:30am 27.8 27.4 20.9 66 4.6 ESE 24 28 13 15 1011.6 1011.3 0.0
15/11:00am 26.9 26.7 20.5 68 4.2 E 22 26 12 14 1011.9 1011.6 0.0
15/10:30am 27.4 27.0 20.2 65 4.7 E 22 28 12 15 1012.1 1011.8 0.0
15/10:00am 27.1 27.2 20.4 66 4.4 ESE 20 24 11 13 1012.2 1011.9 0.0
15/09:30am 27.2 27.1 20.0 64 4.7 ESE 20 26 11 14 1012.4 1012.1 0.0
15/09:00am 26.5 25.7 20.1 68 4.2 E 24 28 13 15 1012.3 1012.0 0.2
15/08:30am 26.3 25.7 20.6 71 3.7 ESE 24 26 13 14 1012.4 1012.1 0.2
15/08:00am 25.7 24.6 20.3 72 3.5 ESE 26 30 14 16 1012.0 1011.7 0.2
15/07:30am 25.0 23.6 19.6 72 3.5 ESE 26 30 14 16 1011.8 1011.5 0.2
15/07:00am 24.7 24.4 19.1 71 3.6 E 19 24 10 13 1011.5 1011.2 0.2
15/06:30am 24.1 23.0 20.2 79 2.5 ESE 26 32 14 17 1011.1 1010.8 0.2
15/06:00am 23.5 22.9 19.8 80 2.4 E 22 32 12 17 1010.9 1010.6 0.2
15/05:30am 23.9 22.5 19.6 77 2.8 E 26 30 14 16 1010.8 1010.5 0.2
15/05:00am 23.9 22.8 20.2 80 2.4 ESE 26 28 14 15 1010.5 1010.2 0.2
15/04:30am 23.4 23.5 20.3 83 2.0 SE 20 22 11 12 1010.3 1010.0 0.2
15/04:00am 23.2 23.5 20.3 84 1.9 ESE 19 22 10 12 1010.2 1009.9 0.2
15/03:30am 23.1 21.8 21.4 90 1.1 ESE 30 39 16 21 1010.1 1009.8 0.0
15/03:00am 23.9 23.3 19.8 78 2.6 E 22 30 12 16 1010.3 1010.0 0.0
15/02:30am 24.1 23.8 20.4 80 2.4 ESE 22 26 12 14 1010.5 1010.2 0.0
15/02:00am 23.9 23.4 20.0 79 2.5 ESE 22 26 12 14 1010.8 1010.5 0.0
15/01:30am 23.9 23.2 20.2 80 2.4 ESE 24 32 13 17 1010.9 1010.6 0.0
15/01:00am 23.6 23.4 20.5 83 2.0 ESE 22 26 12 14 1011.3 1011.0 0.0
15/12:30am 24.3 23.7 20.4 79 2.5 ESE 24 30 13 16 1011.7 1011.4 0.0
15/12:00am 24.2 24.3 19.9 77 2.8 ESE 19 24 10 13 1011.8 1011.5 0.0
 
Date/Time
EST
Temp
°C
App
Temp
°C
Dew
Point
°C
Rel
Hum
%
Delta-T
°C
Wind Press
QNH
hPa
Press
MSL
hPa
Rain since
9am
mm
Dir  Spd
km/h
Gust
km/h
Spd
kts
Gust
kts
14/11:30pm 24.3 24.4 20.4 79 2.5 ESE 20 26 11 14 1012.0 1011.7 0.0
14/11:00pm 24.2 23.1 20.3 79 2.5 ESE 26 33 14 18 1012.1 1011.8 0.0
14/10:30pm 24.3 23.2 20.2 78 2.7 ESE 26 30 14 16 1012.2 1011.9 0.0
14/10:00pm 24.4 23.8 20.5 79 2.5 ESE 24 30 13 16 1012.4 1012.1 0.0
14/09:30pm 24.4 23.3 20.3 78 2.7 ESE 26 30 14 16 1012.5 1012.2 0.0
14/09:00pm 24.5 23.7 20.0 76 2.9 ESE 24 30 13 16 1012.6 1012.3 0.0
14/08:30pm 24.5 23.2 19.8 75 3.0 ESE 26 30 14 16 1012.5 1012.2 0.0
14/08:00pm 24.4 23.4 19.7 75 3.0 ESE 24 28 13 15 1012.4 1012.1 0.0
14/07:30pm 24.6 23.8 20.1 76 2.9 ESE 24 30 13 16 1012.4 1012.1 0.0
14/07:00pm 24.4 22.9 19.5 74 3.2 ESE 26 30 14 16 1011.9 1011.6 0.0
14/06:30pm 24.4 23.0 19.7 75 3.0 ESE 26 28 14 15 1011.8 1011.5 0.0
14/06:00pm 24.5 23.7 20.0 76 2.9 ESE 24 28 13 15 1011.5 1011.2 0.0

Other Formats:

Comma delimited format used in spreadsheet applications
http://www.bom.gov.au/fwo/IDQ60801/IDQ60801.94368.axf

JavaScript Object Notation format (JSON) in row-major order
http://www.bom.gov.au/fwo/IDQ60801/IDQ60801.94368.json